Time;durP1;ratioP1;P1;durP2;ratioP2;P2;SDS_P1;SDS_P2;PMS_P1;PMS_P2;Temp;Humidity;BMP_temperature;BMP_pressure;BME280_temperature;BME280_humidity;BME280_pressure;Samples;Min_cycle;Max_cycle;Signal;HPM_P1;HPM_P2
2024/01/17 06:00:04;;;;;;;18.03;16.23;;;;;;;;;;1744372;28;20209;-79
2024/01/17 06:00:55;;;;;;;16.27;14.60;;;;;;;;;;1743875;28;20449;-78
2024/01/17 06:01:47;;;;;;;16.48;14.80;;;;;;;;;;1744300;28;20223;-79
2024/01/17 06:02:39;;;;;;;18.45;16.00;;;;;;;;;;1744993;28;20203;-80
2024/01/17 06:03:31;;;;;;;17.48;14.38;;;;;;;;;;1743978;28;20617;-79
2024/01/17 06:04:22;;;;;;;18.83;15.05;;;;;;;;;;1743905;28;20207;-79
2024/01/17 06:05:13;;;;;;;17.00;15.35;;;;;;;;;;1743754;28;20191;-80
2024/01/17 06:06:05;;;;;;;16.65;14.95;;;;;;;;;;1743815;28;20187;-79
2024/01/17 06:06:56;;;;;;;16.60;14.88;;;;;;;;;;1743561;28;20211;-79
2024/01/17 06:07:48;;;;;;;17.77;15.82;;;;;;;;;;1743677;28;20191;-78
2024/01/17 06:08:40;;;;;;;17.45;15.02;;;;;;;;;;1743682;28;20207;-80
2024/01/17 06:09:31;;;;;;;15.52;13.85;;;;;;;;;;1743746;28;20211;-79
2024/01/17 06:10:23;;;;;;;16.10;14.00;;;;;;;;;;1743501;28;20211;-80
2024/01/17 06:11:16;;;;;;;17.30;14.52;;;;;;;;;;1743407;28;20563;-79
2024/01/17 06:12:07;;;;;;;15.93;14.30;;;;;;;;;;1743545;28;20703;-79
2024/01/17 06:12:59;;;;;;;16.38;14.35;;;;;;;;;;1743783;28;20207;-79
2024/01/17 06:13:51;;;;;;;17.98;14.57;;;;;;;;;;1743841;28;20211;-78
2024/01/17 06:14:42;;;;;;;16.45;14.85;;;;;;;;;;1743683;28;20231;-79
2024/01/17 06:15:36;;;;;;;15.07;13.45;;;;;;;;;;1743748;28;20199;-78
2024/01/17 06:16:27;;;;;;;17.25;15.45;;;;;;;;;;1743083;28;20223;-79
2024/01/17 06:17:19;;;;;;;16.73;14.98;;;;;;;;;;1743369;28;20207;-79
2024/01/17 06:18:12;;;;;;;18.23;14.60;;;;;;;;;;1743828;28;20741;-79
2024/01/17 06:19:03;;;;;;;19.73;15.23;;;;;;;;;;1743509;28;20195;-80
2024/01/17 06:19:55;;;;;;;17.13;14.27;;;;;;;;;;1743328;28;20209;-80
2024/01/17 06:20:47;;;;;;;18.67;15.52;;;;;;;;;;1743572;28;20187;-78
2024/01/17 06:21:38;;;;;;;15.68;14.07;;;;;;;;;;1743181;28;20237;-80
2024/01/17 06:22:29;;;;;;;17.27;15.07;;;;;;;;;;1743709;28;20199;-79
2024/01/17 06:23:21;;;;;;;16.30;14.60;;;;;;;;;;1743585;28;20590;-79
2024/01/17 06:24:12;;;;;;;16.20;14.45;;;;;;;;;;1743743;28;20210;-79
2024/01/17 06:25:04;;;;;;;16.80;15.00;;;;;;;;;;1743430;28;20291;-80
2024/01/17 06:25:56;;;;;;;18.80;15.35;;;;;;;;;;1743886;28;20213;-80
2024/01/17 06:26:47;;;;;;;16.02;14.32;;;;;;;;;;1743651;28;20356;-79
2024/01/17 06:27:38;;;;;;;16.40;14.77;;;;;;;;;;1743638;28;20238;-79
2024/01/17 06:28:33;;;;;;;16.38;14.57;;;;;;;;;;1742708;28;20203;-79
2024/01/17 06:29:25;;;;;;;18.88;14.40;;;;;;;;;;1736521;28;20204;-79
2024/01/17 06:30:17;;;;;;;17.10;14.75;;;;;;;;;;1739684;28;20206;-79
2024/01/17 06:31:10;;;;;;;15.82;14.23;;;;;;;;;;1743399;28;20199;-79
2024/01/17 06:32:03;;;;;;;19.52;16.10;;;;;;;;;;1743208;28;20199;-80
2024/01/17 06:32:54;;;;;;;18.08;15.20;;;;;;;;;;1742804;28;20214;-80
2024/01/17 06:33:46;;;;;;;16.90;15.20;;;;;;;;;;1743085;28;20195;-80
2024/01/17 06:34:38;;;;;;;18.65;15.40;;;;;;;;;;1743556;28;20194;-80
2024/01/17 06:35:29;;;;;;;18.58;14.82;;;;;;;;;;1743566;28;20549;-80
2024/01/17 06:36:20;;;;;;;17.55;14.65;;;;;;;;;;1743219;28;20223;-80
2024/01/17 06:37:12;;;;;;;16.55;14.70;;;;;;;;;;1743273;28;20659;-79
2024/01/17 06:38:03;;;;;;;18.60;15.50;;;;;;;;;;1743166;28;20229;-80
2024/01/17 06:38:54;;;;;;;17.33;14.55;;;;;;;;;;1743664;28;20202;-80
2024/01/17 06:39:46;;;;;;;17.08;15.27;;;;;;;;;;1743033;28;20570;-79
2024/01/17 06:40:37;;;;;;;17.77;15.95;;;;;;;;;;1743671;28;20234;-79
2024/01/17 06:41:28;;;;;;;19.02;15.45;;;;;;;;;;1743429;28;20221;-79
2024/01/17 06:42:20;;;;;;;17.17;15.38;;;;;;;;;;1743969;28;20260;-80
2024/01/17 06:43:11;;;;;;;16.17;14.57;;;;;;;;;;1743792;28;20226;-80
2024/01/17 06:44:03;;;;;;;17.15;15.32;;;;;;;;;;1743968;28;20656;-80
2024/01/17 06:44:55;;;;;;;20.42;15.85;;;;;;;;;;1743994;28;20207;-80
2024/01/17 06:45:46;;;;;;;17.33;15.52;;;;;;;;;;1743740;28;20751;-80
2024/01/17 06:46:39;;;;;;;16.27;14.57;;;;;;;;;;1744113;28;20249;-80
2024/01/17 06:47:31;;;;;;;18.33;15.90;;;;;;;;;;1743804;28;20219;-80
2024/01/17 06:48:22;;;;;;;18.38;16.52;;;;;;;;;;1743989;28;20198;-80
2024/01/17 06:49:13;;;;;;;18.40;16.50;;;;;;;;;;1743585;28;20191;-80
2024/01/17 06:50:06;;;;;;;17.52;15.73;;;;;;;;;;1743245;28;20195;-80
2024/01/17 06:50:57;;;;;;;20.00;17.15;;;;;;;;;;1743802;28;20203;-80
2024/01/17 06:51:48;;;;;;;17.20;15.60;;;;;;;;;;1743817;28;20810;-80
2024/01/17 06:52:40;;;;;;;19.33;17.30;;;;;;;;;;1743980;28;20195;-80
2024/01/17 06:53:32;;;;;;;17.95;16.17;;;;;;;;;;1743874;28;20206;-80
2024/01/17 06:54:24;;;;;;;16.77;15.20;;;;;;;;;;1743883;28;20225;-80
2024/01/17 06:55:15;;;;;;;18.02;16.13;;;;;;;;;;1744302;28;20208;-80
2024/01/17 06:56:06;;;;;;;16.83;15.05;;;;;;;;;;1743850;28;20199;-79
2024/01/17 06:56:58;;;;;;;18.50;16.65;;;;;;;;;;1744124;28;20199;-80
2024/01/17 06:57:49;;;;;;;17.30;15.55;;;;;;;;;;1744538;28;20207;-80
2024/01/17 06:58:42;;;;;;;18.02;16.23;;;;;;;;;;1743869;28;20191;-80
2024/01/17 06:59:33;;;;;;;16.33;14.73;;;;;;;;;;1743908;28;20324;-80
2024/01/17 07:00:25;;;;;;;18.23;15.38;;;;;;;;;;1743471;28;20195;-80
2024/01/17 07:01:16;;;;;;;16.20;14.48;;;;;;;;;;1743653;28;20609;-80
2024/01/17 07:02:09;;;;;;;18.20;16.30;;;;;;;;;;1744125;28;20203;-80
2024/01/17 07:03:01;;;;;;;16.75;15.05;;;;;;;;;;1744129;28;20211;-80
2024/01/17 07:03:52;;;;;;;18.75;14.90;;;;;;;;;;1744083;28;20396;-80
2024/01/17 07:04:44;;;;;;;17.30;15.40;;;;;;;;;;1744215;28;20207;-80
2024/01/17 07:05:36;;;;;;;18.60;15.20;;;;;;;;;;1744552;28;20203;-80
2024/01/17 07:06:27;;;;;;;18.13;16.33;;;;;;;;;;1743943;28;20661;-79
2024/01/17 07:07:19;;;;;;;18.33;16.33;;;;;;;;;;1743068;28;20297;-77
2024/01/17 07:08:11;;;;;;;21.33;19.00;;;;;;;;;;1741912;28;20202;-77
2024/01/17 07:09:03;;;;;;;20.48;18.30;;;;;;;;;;1741213;28;20191;-76
2024/01/17 07:09:54;;;;;;;22.85;20.45;;;;;;;;;;1740915;28;20612;-75
2024/01/17 07:10:45;;;;;;;26.35;22.48;;;;;;;;;;1741488;28;20195;-75
2024/01/17 07:11:37;;;;;;;27.45;24.50;;;;;;;;;;1741404;28;20206;-75
2024/01/17 07:12:28;;;;;;;25.77;22.45;;;;;;;;;;1741435;28;20203;-75
2024/01/17 07:13:19;;;;;;;24.42;20.63;;;;;;;;;;1741415;28;20198;-76
2024/01/17 07:14:11;;;;;;;22.83;20.45;;;;;;;;;;1741302;28;20864;-76
2024/01/17 07:15:03;;;;;;;21.27;18.75;;;;;;;;;;1741328;28;20203;-75
2024/01/17 07:15:55;;;;;;;21.25;19.02;;;;;;;;;;1741410;28;20203;-75
2024/01/17 07:16:48;;;;;;;18.25;16.40;;;;;;;;;;1741350;28;20203;-76
2024/01/17 07:17:40;;;;;;;20.92;17.40;;;;;;;;;;1740920;28;20299;-76
2024/01/17 07:18:33;;;;;;;18.67;16.60;;;;;;;;;;1740700;28;20214;-76
2024/01/17 07:19:24;;;;;;;18.98;16.85;;;;;;;;;;1741277;28;20195;-76
2024/01/17 07:20:16;;;;;;;18.25;15.88;;;;;;;;;;1740576;28;20676;-75
2024/01/17 07:21:07;;;;;;;29.92;24.02;;;;;;;;;;1737831;28;20203;-76
2024/01/17 07:21:58;;;;;;;37.45;28.55;;;;;;;;;;1741422;28;20238;-76
2024/01/17 07:22:50;;;;;;;50.97;37.33;;;;;;;;;;1740592;28;20611;-76
2024/01/17 07:23:43;;;;;;;65.80;49.40;;;;;;;;;;1740924;28;20223;-76
2024/01/17 07:24:36;;;;;;;69.15;49.47;;;;;;;;;;1741168;28;20199;-76
2024/01/17 07:25:27;;;;;;;72.03;45.72;;;;;;;;;;1741091;28;20203;-76
2024/01/17 07:26:18;;;;;;;63.38;44.30;;;;;;;;;;1741036;28;20249;-76
2024/01/17 07:27:10;;;;;;;60.70;45.10;;;;;;;;;;1740856;28;20618;-75
2024/01/17 07:28:01;;;;;;;49.92;37.35;;;;;;;;;;1741095;28;20238;-76
2024/01/17 07:28:52;;;;;;;40.63;31.23;;;;;;;;;;1740724;28;20664;-74
2024/01/17 07:29:45;;;;;;;25.35;21.05;;;;;;;;;;1740779;28;20207;-73
2024/01/17 07:30:36;;;;;;;20.00;17.80;;;;;;;;;;1740831;28;20195;-77
2024/01/17 07:31:28;;;;;;;21.20;18.80;;;;;;;;;;1740312;28;20207;-77
2024/01/17 07:32:19;;;;;;;19.02;17.02;;;;;;;;;;1741031;28;20219;-77
2024/01/17 07:33:12;;;;;;;20.80;17.17;;;;;;;;;;1740593;28;20633;-77
2024/01/17 07:34:04;;;;;;;19.80;17.80;;;;;;;;;;1740971;28;20569;-77
2024/01/17 07:34:55;;;;;;;19.80;17.10;;;;;;;;;;1741250;28;20580;-77
2024/01/17 07:35:47;;;;;;;20.55;17.75;;;;;;;;;;1740939;28;20237;-77
2024/01/17 07:36:38;;;;;;;17.77;15.88;;;;;;;;;;1741142;28;20272;-76
2024/01/17 07:37:31;;;;;;;20.23;16.10;;;;;;;;;;1741362;28;20203;-75
2024/01/17 07:38:23;;;;;;;20.15;17.13;;;;;;;;;;1741285;28;20205;-77
2024/01/17 07:39:14;;;;;;;20.08;16.92;;;;;;;;;;1741389;28;20340;-77
2024/01/17 07:40:09;;;;;;;19.02;17.15;;;;;;;;;;1740398;28;20207;-77
2024/01/17 07:41:00;;;;;;;19.98;17.88;;;;;;;;;;1740938;28;20272;-72
2024/01/17 07:41:52;;;;;;;19.80;17.25;;;;;;;;;;1740968;28;20672;-74
2024/01/17 07:42:43;;;;;;;22.65;17.52;;;;;;;;;;1741052;28;20203;-72
2024/01/17 07:43:34;;;;;;;21.23;17.15;;;;;;;;;;1741231;28;20721;-73
2024/01/17 07:44:29;;;;;;;20.33;18.15;;;;;;;;;;1741185;28;20205;-73
2024/01/17 07:45:21;;;;;;;18.08;16.15;;;;;;;;;;1741144;28;20664;-75
2024/01/17 07:46:13;;;;;;;20.58;17.00;;;;;;;;;;1741110;28;20199;-74
2024/01/17 07:47:04;;;;;;;18.50;16.50;;;;;;;;;;1741093;28;20563;-73
2024/01/17 07:47:55;;;;;;;19.75;17.60;;;;;;;;;;1741183;28;20219;-75
2024/01/17 07:48:49;;;;;;;18.50;16.50;;;;;;;;;;1741091;28;20568;-74
2024/01/17 07:49:40;;;;;;;19.15;17.17;;;;;;;;;;1741192;28;20207;-75
2024/01/17 07:50:31;;;;;;;19.15;17.15;;;;;;;;;;1740573;28;20202;-75
2024/01/17 07:51:23;;;;;;;18.10;16.25;;;;;;;;;;1741123;28;20328;-75
2024/01/17 07:52:14;;;;;;;20.17;18.08;;;;;;;;;;1740907;28;20671;-75
2024/01/17 07:53:07;;;;;;;20.02;16.65;;;;;;;;;;1741032;28;20576;-74
2024/01/17 07:53:59;;;;;;;17.90;16.00;;;;;;;;;;1741084;28;20199;-74
2024/01/17 07:54:50;;;;;;;19.75;17.10;;;;;;;;;;1740972;28;20221;-75
2024/01/17 07:55:42;;;;;;;18.70;16.77;;;;;;;;;;1741038;28;20560;-74
2024/01/17 07:56:34;;;;;;;18.50;16.52;;;;;;;;;;1741083;28;20219;-74
2024/01/17 07:57:25;;;;;;;18.50;16.60;;;;;;;;;;1741115;28;20466;-75
2024/01/17 07:58:16;;;;;;;18.42;16.58;;;;;;;;;;1740924;28;20631;-74
2024/01/17 07:59:08;;;;;;;19.48;16.75;;;;;;;;;;1739259;28;21927;-74
2024/01/17 07:59:59;;;;;;;19.35;16.77;;;;;;;;;;1739615;28;20553;-74
2024/01/17 08:00:53;;;;;;;18.30;16.52;;;;;;;;;;1740124;28;20202;-73
2024/01/17 08:01:44;;;;;;;17.95;16.05;;;;;;;;;;1740288;28;20615;-73
2024/01/17 08:02:36;;;;;;;18.35;16.45;;;;;;;;;;1740240;28;20195;-73
2024/01/17 08:03:27;;;;;;;16.65;14.95;;;;;;;;;;1740310;28;20573;-73
2024/01/17 08:04:20;;;;;;;17.45;15.65;;;;;;;;;;1740455;28;20628;-73
2024/01/17 08:05:12;;;;;;;20.10;17.45;;;;;;;;;;1740223;28;20214;-73
2024/01/17 08:06:04;;;;;;;18.00;16.10;;;;;;;;;;1740286;28;20201;-75
2024/01/17 08:06:55;;;;;;;17.85;15.95;;;;;;;;;;1740315;28;20202;-75
2024/01/17 08:07:46;;;;;;;17.15;15.23;;;;;;;;;;1740258;28;20203;-75
2024/01/17 08:08:38;;;;;;;17.65;15.90;;;;;;;;;;1740463;28;20247;-75
2024/01/17 08:09:29;;;;;;;17.52;15.73;;;;;;;;;;1740710;28;20218;-75
2024/01/17 08:10:21;;;;;;;17.50;15.70;;;;;;;;;;1740088;28;20217;-75
2024/01/17 08:11:12;;;;;;;16.55;14.50;;;;;;;;;;1740664;28;20691;-76
2024/01/17 08:12:04;;;;;;;16.63;14.93;;;;;;;;;;1740554;28;20375;-75
2024/01/17 08:12:56;;;;;;;17.85;15.02;;;;;;;;;;1740345;28;20264;-75
2024/01/17 08:13:47;;;;;;;21.40;17.38;;;;;;;;;;1740438;28;20209;-74
2024/01/17 08:14:38;;;;;;;18.95;16.90;;;;;;;;;;1740378;28;20547;-74
2024/01/17 08:15:30;;;;;;;17.98;15.38;;;;;;;;;;1740766;28;20619;-74
2024/01/17 08:16:21;;;;;;;18.50;16.52;;;;;;;;;;1740590;28;20223;-75
2024/01/17 08:17:12;;;;;;;18.02;16.23;;;;;;;;;;1740712;28;20203;-75
2024/01/17 08:18:05;;;;;;;17.17;15.38;;;;;;;;;;1740608;28;20194;-73
2024/01/17 08:18:56;;;;;;;17.83;15.80;;;;;;;;;;1740322;28;20210;-73
2024/01/17 08:19:48;;;;;;;17.60;15.80;;;;;;;;;;1740217;28;20195;-77
2024/01/17 08:20:40;;;;;;;16.23;14.63;;;;;;;;;;1740524;28;20683;-76
2024/01/17 08:21:31;;;;;;;16.15;14.43;;;;;;;;;;1737920;28;20337;-77
2024/01/17 08:22:23;;;;;;;15.57;14.05;;;;;;;;;;1740342;28;20606;-76
2024/01/17 08:23:14;;;;;;;16.80;14.82;;;;;;;;;;1739877;28;20195;-77
2024/01/17 08:24:06;;;;;;;18.38;15.50;;;;;;;;;;1740406;28;20199;-76
2024/01/17 08:24:58;;;;;;;16.60;14.80;;;;;;;;;;1739957;28;20344;-77
2024/01/17 08:25:49;;;;;;;15.70;14.18;;;;;;;;;;1740425;28;20210;-77
2024/01/17 08:26:40;;;;;;;16.73;15.13;;;;;;;;;;1739572;28;20612;-77
2024/01/17 08:27:33;;;;;;;16.10;14.18;;;;;;;;;;1740348;28;20492;-76
2024/01/17 08:28:24;;;;;;;15.50;13.80;;;;;;;;;;1740415;28;20238;-75
2024/01/17 08:29:17;;;;;;;15.73;14.13;;;;;;;;;;1740548;28;20608;-76
2024/01/17 08:30:09;;;;;;;17.15;15.35;;;;;;;;;;1740376;28;20210;-76
2024/01/17 08:31:01;;;;;;;16.27;14.57;;;;;;;;;;1740657;28;20703;-75
2024/01/17 08:31:52;;;;;;;15.85;14.15;;;;;;;;;;1740414;28;20203;-76
2024/01/17 08:32:44;;;;;;;15.48;13.98;;;;;;;;;;1737928;28;20223;-76
2024/01/17 08:33:36;;;;;;;15.55;14.00;;;;;;;;;;1739214;28;20221;-76
2024/01/17 08:34:27;;;;;;;14.35;12.95;;;;;;;;;;1740019;28;20203;-77
2024/01/17 08:35:21;;;;;;;15.55;13.65;;;;;;;;;;1740884;28;20205;-77
2024/01/17 08:36:14;;;;;;;14.45;12.95;;;;;;;;;;1740453;28;20210;-76
2024/01/17 08:37:06;;;;;;;15.32;13.75;;;;;;;;;;1740551;28;20621;-76
2024/01/17 08:37:57;;;;;;;13.52;12.13;;;;;;;;;;1740339;28;20202;-77
2024/01/17 08:38:48;;;;;;;13.50;12.20;;;;;;;;;;1740663;28;20660;-77
2024/01/17 08:39:43;;;;;;;14.30;12.90;;;;;;;;;;1740697;28;20282;-77
2024/01/17 08:40:36;;;;;;;14.15;12.70;;;;;;;;;;1740756;28;20223;-76
2024/01/17 08:41:28;;;;;;;14.27;12.82;;;;;;;;;;1740660;28;20562;-77
2024/01/17 08:42:19;;;;;;;14.35;12.85;;;;;;;;;;1739129;28;20210;-77
2024/01/17 08:43:11;;;;;;;14.35;12.82;;;;;;;;;;1739735;28;20231;-76
2024/01/17 08:44:02;;;;;;;14.93;13.32;;;;;;;;;;1737604;28;20199;-76
2024/01/17 08:44:54;;;;;;;14.57;13.05;;;;;;;;;;1740668;28;20194;-77
2024/01/17 08:45:46;;;;;;;14.55;13.15;;;;;;;;;;1740533;28;20202;-77
2024/01/17 08:46:42;;;;;;;14.43;12.93;;;;;;;;;;1740752;28;20752;-77
2024/01/17 08:47:34;;;;;;;15.32;13.30;;;;;;;;;;1740662;28;20751;-77
2024/01/17 08:48:25;;;;;;;14.30;12.90;;;;;;;;;;1740626;28;20597;-77
2024/01/17 08:49:16;;;;;;;13.52;12.23;;;;;;;;;;1740475;28;20866;-77
2024/01/17 08:50:08;;;;;;;13.75;12.35;;;;;;;;;;1740265;28;20284;-78
2024/01/17 08:51:02;;;;;;;13.82;12.38;;;;;;;;;;1740631;28;20211;-77
2024/01/17 08:51:54;;;;;;;13.70;12.27;;;;;;;;;;1740915;28;20805;-77
2024/01/17 08:52:46;;;;;;;13.50;12.18;;;;;;;;;;1738231;28;20196;-77
2024/01/17 08:53:37;;;;;;;14.10;12.65;;;;;;;;;;1740000;28;20293;-77
2024/01/17 08:54:29;;;;;;;15.73;12.57;;;;;;;;;;1740138;28;20194;-76
2024/01/17 08:55:21;;;;;;;13.80;12.40;;;;;;;;;;1740374;28;20296;-77
2024/01/17 08:56:14;;;;;;;13.82;12.43;;;;;;;;;;1740390;28;20203;-77
2024/01/17 08:57:07;;;;;;;15.50;13.43;;;;;;;;;;1740508;28;20207;-77
2024/01/17 08:57:58;;;;;;;14.85;13.25;;;;;;;;;;1740592;28;20248;-77
2024/01/17 08:58:49;;;;;;;15.55;13.48;;;;;;;;;;1740625;28;20203;-77
2024/01/17 08:59:41;;;;;;;18.38;14.45;;;;;;;;;;1740595;28;20199;-77
2024/01/17 09:00:32;;;;;;;17.17;14.10;;;;;;;;;;1740100;28;20203;-74
2024/01/17 09:01:23;;;;;;;16.98;14.90;;;;;;;;;;1740247;28;20206;-73
2024/01/17 09:02:15;;;;;;;17.80;14.50;;;;;;;;;;1739449;28;20203;-74
2024/01/17 09:03:08;;;;;;;17.90;14.25;;;;;;;;;;1740143;28;20283;-78
2024/01/17 09:03:59;;;;;;;14.10;12.70;;;;;;;;;;1739757;28;20199;-76
2024/01/17 09:04:51;;;;;;;13.98;12.57;;;;;;;;;;1740280;28;20214;-77
2024/01/17 09:05:42;;;;;;;15.02;12.85;;;;;;;;;;1740661;28;20510;-77
2024/01/17 09:06:35;;;;;;;13.77;12.30;;;;;;;;;;1740479;28;20227;-77
2024/01/17 09:07:27;;;;;;;13.52;12.13;;;;;;;;;;1740445;28;20686;-76
2024/01/17 09:08:18;;;;;;;13.18;11.93;;;;;;;;;;1740589;28;20238;-76
2024/01/17 09:09:11;;;;;;;14.00;11.95;;;;;;;;;;1740814;28;20226;-76
2024/01/17 09:10:04;;;;;;;13.70;11.73;;;;;;;;;;1740546;28;20218;-76
2024/01/17 09:10:55;;;;;;;12.63;11.30;;;;;;;;;;1742011;28;20553;-76
2024/01/17 09:11:46;;;;;;;12.85;11.55;;;;;;;;;;1741492;28;20663;-76
2024/01/17 09:12:38;;;;;;;13.00;11.70;;;;;;;;;;1735151;28;20257;-77
2024/01/17 09:13:29;;;;;;;12.32;11.02;;;;;;;;;;1735310;28;20661;-76
2024/01/17 09:14:21;;;;;;;13.07;11.80;;;;;;;;;;1740616;28;20268;-77
2024/01/17 09:15:14;;;;;;;13.07;11.48;;;;;;;;;;1741946;28;20188;-76
2024/01/17 09:16:05;;;;;;;13.02;11.73;;;;;;;;;;1742051;28;20577;-76
2024/01/17 09:16:57;;;;;;;13.10;10.75;;;;;;;;;;1742113;28;20206;-76
2024/01/17 09:17:48;;;;;;;12.63;11.40;;;;;;;;;;1742124;28;20211;-77
2024/01/17 09:18:40;;;;;;;12.48;11.18;;;;;;;;;;1742127;28;20191;-76
2024/01/17 09:19:31;;;;;;;12.20;10.82;;;;;;;;;;1742173;28;20207;-76
2024/01/17 09:20:24;;;;;;;13.02;11.73;;;;;;;;;;1741909;28;20426;-76
2024/01/17 09:21:15;;;;;;;12.23;10.93;;;;;;;;;;1742130;28;20252;-76
2024/01/17 09:22:07;;;;;;;12.88;11.52;;;;;;;;;;1742134;28;20199;-77
2024/01/17 09:23:00;;;;;;;12.75;11.43;;;;;;;;;;1742233;28;20286;-76
2024/01/17 09:23:51;;;;;;;13.60;11.68;;;;;;;;;;1742088;28;20737;-76
2024/01/17 09:24:42;;;;;;;12.05;10.80;;;;;;;;;;1741938;28;20688;-77
2024/01/17 09:25:34;;;;;;;11.77;10.57;;;;;;;;;;1742131;28;20203;-76
2024/01/17 09:26:25;;;;;;;11.68;10.48;;;;;;;;;;1741888;28;20241;-77
2024/01/17 09:27:17;;;;;;;13.63;11.13;;;;;;;;;;1742060;28;20724;-76
2024/01/17 09:28:09;;;;;;;11.73;10.52;;;;;;;;;;1742101;28;20300;-77
2024/01/17 09:29:00;;;;;;;12.07;10.85;;;;;;;;;;1742159;28;20248;-77
2024/01/17 09:29:52;;;;;;;12.20;10.90;;;;;;;;;;1741784;28;20565;-77
2024/01/17 09:30:43;;;;;;;11.25;10.05;;;;;;;;;;1742158;28;20290;-76
2024/01/17 09:31:34;;;;;;;10.93;9.88;;;;;;;;;;1742132;28;20208;-76
2024/01/17 09:32:26;;;;;;;11.60;10.40;;;;;;;;;;1742060;28;20707;-77
2024/01/17 09:33:18;;;;;;;11.02;9.65;;;;;;;;;;1742002;28;20211;-76
2024/01/17 09:34:09;;;;;;;12.35;9.90;;;;;;;;;;1742074;28;20278;-76
2024/01/17 09:35:01;;;;;;;11.88;10.68;;;;;;;;;;1738815;28;20287;-76
2024/01/17 09:35:52;;;;;;;13.27;11.88;;;;;;;;;;1741310;28;20202;-76
2024/01/17 09:36:44;;;;;;;11.27;10.10;;;;;;;;;;1741919;28;20257;-75
2024/01/17 09:37:37;;;;;;;11.68;10.48;;;;;;;;;;1742092;28;20196;-76
2024/01/17 09:38:28;;;;;;;10.82;9.73;;;;;;;;;;1741921;28;20203;-76
2024/01/17 09:39:20;;;;;;;11.30;10.10;;;;;;;;;;1741997;28;20230;-76
2024/01/17 09:40:12;;;;;;;12.05;10.35;;;;;;;;;;1741784;28;20210;-77
2024/01/17 09:41:05;;;;;;;11.27;10.18;;;;;;;;;;1742055;28;20322;-77
2024/01/17 09:41:57;;;;;;;11.55;10.27;;;;;;;;;;1742138;28;20203;-77
2024/01/17 09:42:48;;;;;;;10.85;9.82;;;;;;;;;;1740385;28;20675;-76
2024/01/17 09:43:40;;;;;;;11.00;9.90;;;;;;;;;;1741622;28;20219;-77
2024/01/17 09:44:31;;;;;;;11.25;10.13;;;;;;;;;;1741644;28;20565;-76
2024/01/17 09:45:23;;;;;;;10.23;9.23;;;;;;;;;;1741239;28;20574;-76
2024/01/17 09:46:15;;;;;;;10.35;9.38;;;;;;;;;;1741489;28;20253;-77
2024/01/17 09:47:08;;;;;;;10.60;9.50;;;;;;;;;;1739582;28;20726;-76
2024/01/17 09:48:01;;;;;;;10.18;9.18;;;;;;;;;;1737178;28;20474;-75
2024/01/17 09:48:52;;;;;;;9.57;8.57;;;;;;;;;;1741903;28;20296;-78
2024/01/17 09:49:43;;;;;;;10.23;9.23;;;;;;;;;;1741860;28;20286;-74
2024/01/17 09:50:35;;;;;;;12.57;11.27;;;;;;;;;;1741803;28;20202;-74
2024/01/17 09:51:28;;;;;;;12.00;10.80;;;;;;;;;;1742005;28;20207;-76
2024/01/17 09:52:21;;;;;;;12.25;10.65;;;;;;;;;;1741943;28;20631;-76
2024/01/17 09:53:14;;;;;;;10.70;9.57;;;;;;;;;;1741964;28;20297;-76
2024/01/17 09:54:05;;;;;;;10.10;9.10;;;;;;;;;;1741729;28;20207;-76
2024/01/17 09:54:59;;;;;;;10.75;8.90;;;;;;;;;;1741014;28;20203;-77
2024/01/17 09:55:52;;;;;;;9.23;8.25;;;;;;;;;;1741444;28;20207;-76
2024/01/17 09:56:45;;;;;;;9.20;8.32;;;;;;;;;;1741888;28;20813;-77
2024/01/17 09:57:42;;;;;;;10.25;9.23;;;;;;;;;;1741328;28;20687;-77
2024/01/17 09:58:34;;;;;;;9.70;8.45;;;;;;;;;;1741380;28;20199;-76
2024/01/17 09:59:28;;;;;;;9.52;8.60;;;;;;;;;;1741121;28;20202;-76
2024/01/17 10:00:19;;;;;;;10.65;9.63;;;;;;;;;;1740272;28;20199;-77
2024/01/17 10:01:14;;;;;;;9.20;8.25;;;;;;;;;;1741254;28;20686;-76
2024/01/17 10:02:06;;;;;;;9.93;8.23;;;;;;;;;;1741193;28;20510;-76
2024/01/17 10:02:58;;;;;;;8.73;7.93;;;;;;;;;;1741150;28;20198;-76
2024/01/17 10:03:49;;;;;;;8.80;7.90;;;;;;;;;;1741104;28;20206;-76
2024/01/17 10:04:41;;;;;;;8.57;7.78;;;;;;;;;;1741283;28;20278;-76
2024/01/17 10:05:35;;;;;;;9.18;8.38;;;;;;;;;;1740723;28;20261;-76
2024/01/17 10:06:26;;;;;;;9.38;8.38;;;;;;;;;;1741063;28;20284;-77
2024/01/17 10:07:18;;;;;;;9.75;8.80;;;;;;;;;;1741200;28;20199;-77
2024/01/17 10:08:10;;;;;;;9.15;8.25;;;;;;;;;;1741235;28;20273;-76
2024/01/17 10:09:02;;;;;;;8.30;7.50;;;;;;;;;;1741021;28;20714;-76
2024/01/17 10:09:53;;;;;;;9.00;7.70;;;;;;;;;;1740550;28;20599;-76
2024/01/17 10:10:46;;;;;;;27.52;21.23;;;;;;;;;;1741191;28;20230;-77
2024/01/17 10:11:38;;;;;;;24.75;19.83;;;;;;;;;;1741203;28;20582;-76
2024/01/17 10:12:30;;;;;;;17.58;14.57;;;;;;;;;;1741263;28;20683;-76
2024/01/17 10:13:21;;;;;;;15.73;12.77;;;;;;;;;;1741414;28;20594;-76
2024/01/17 10:14:13;;;;;;;14.63;10.18;;;;;;;;;;1741859;28;20253;-76
2024/01/17 10:15:07;;;;;;;9.73;8.73;;;;;;;;;;1741442;28;20290;-75
2024/01/17 10:16:00;;;;;;;10.27;9.10;;;;;;;;;;1741722;28;20207;-76
2024/01/17 10:16:51;;;;;;;10.98;8.43;;;;;;;;;;1741805;28;20227;-76
2024/01/17 10:17:43;;;;;;;8.70;7.80;;;;;;;;;;1741822;28;20203;-76
2024/01/17 10:18:35;;;;;;;8.90;8.00;;;;;;;;;;1741757;28;20203;-76
2024/01/17 10:19:27;;;;;;;8.65;7.88;;;;;;;;;;1741803;28;20644;-76
2024/01/17 10:20:18;;;;;;;8.95;8.00;;;;;;;;;;1740638;28;20203;-76
2024/01/17 10:21:09;;;;;;;7.90;7.10;;;;;;;;;;1741703;28;20290;-76
2024/01/17 10:22:04;;;;;;;7.95;7.15;;;;;;;;;;1741197;28;20196;-76
2024/01/17 10:22:55;;;;;;;8.73;7.70;;;;;;;;;;1741793;28;20211;-76
2024/01/17 10:23:49;;;;;;;8.82;8.02;;;;;;;;;;1741741;28;20257;-76
2024/01/17 10:24:42;;;;;;;8.10;7.30;;;;;;;;;;1741676;28;20233;-76
2024/01/17 10:25:37;;;;;;;8.88;7.85;;;;;;;;;;1741363;28;20690;-76
2024/01/17 10:26:29;;;;;;;8.43;7.63;;;;;;;;;;1741546;28;20235;-76
2024/01/17 10:27:20;;;;;;;8.18;7.40;;;;;;;;;;1741697;28;20207;-76
2024/01/17 10:28:11;;;;;;;7.22;6.53;;;;;;;;;;1741733;28;20191;-76
2024/01/17 10:29:03;;;;;;;8.40;7.47;;;;;;;;;;1741757;28;20737;-78
2024/01/17 10:29:55;;;;;;;8.05;6.82;;;;;;;;;;1741463;28;20664;-76
2024/01/17 10:30:48;;;;;;;9.95;8.50;;;;;;;;;;1741703;28;20197;-75
2024/01/17 10:31:39;;;;;;;9.25;8.30;;;;;;;;;;1741680;28;20207;-76
2024/01/17 10:32:31;;;;;;;8.63;7.85;;;;;;;;;;1741358;28;20195;-76
2024/01/17 10:33:23;;;;;;;8.27;7.25;;;;;;;;;;1741667;28;20257;-76
2024/01/17 10:34:14;;;;;;;8.27;7.47;;;;;;;;;;1741488;28;20209;-75
2024/01/17 10:35:05;;;;;;;9.43;8.52;;;;;;;;;;1741772;28;20222;-76
2024/01/17 10:35:57;;;;;;;8.90;8.10;;;;;;;;;;1741213;28;20587;-76
2024/01/17 10:36:48;;;;;;;8.50;7.70;;;;;;;;;;1741759;28;20211;-77
2024/01/17 10:37:40;;;;;;;9.15;7.57;;;;;;;;;;1741709;28;20193;-77
2024/01/17 10:38:32;;;;;;;8.18;7.38;;;;;;;;;;1741708;28;20195;-76
2024/01/17 10:39:25;;;;;;;9.43;7.88;;;;;;;;;;1741622;28;20203;-76
2024/01/17 10:40:19;;;;;;;9.00;7.70;;;;;;;;;;1734453;28;20278;-76
2024/01/17 10:41:10;;;;;;;8.70;7.80;;;;;;;;;;1734872;28;20586;-76
2024/01/17 10:42:05;;;;;;;8.38;7.68;;;;;;;;;;1740587;28;20257;-76
2024/01/17 10:43:09;;;;;;;7.80;7.00;;;;;;;;;;1741769;28;20207;-76
2024/01/17 10:44:03;;;;;;;7.45;6.75;;;;;;;;;;1741230;28;20253;-76
2024/01/17 10:44:56;;;;;;;8.52;7.72;;;;;;;;;;1741771;28;20238;-76
2024/01/17 10:45:49;;;;;;;8.75;7.90;;;;;;;;;;1741195;28;20667;-76
2024/01/17 10:46:41;;;;;;;8.52;7.72;;;;;;;;;;1741588;28;20219;-76
2024/01/17 10:47:33;;;;;;;9.75;7.70;;;;;;;;;;1742129;28;20207;-76
2024/01/17 10:48:25;;;;;;;8.68;7.82;;;;;;;;;;1741818;28;20568;-76
2024/01/17 10:49:16;;;;;;;8.00;7.30;;;;;;;;;;1741857;28;20210;-77
2024/01/17 10:50:07;;;;;;;8.38;7.68;;;;;;;;;;1741353;28;20203;-76
2024/01/17 10:51:01;;;;;;;9.27;8.18;;;;;;;;;;1741992;28;20881;-77
2024/01/17 10:51:58;;;;;;;9.23;8.35;;;;;;;;;;1741838;28;20344;-77
2024/01/17 10:52:50;;;;;;;8.52;7.68;;;;;;;;;;1741653;28;20206;-76
2024/01/17 10:53:42;;;;;;;8.02;7.30;;;;;;;;;;1741592;28;20294;-76
2024/01/17 10:54:37;;;;;;;7.72;6.97;;;;;;;;;;1741487;28;20244;-76
2024/01/17 10:55:30;;;;;;;9.45;7.20;;;;;;;;;;1741603;28;20210;-76
2024/01/17 10:56:22;;;;;;;12.55;10.15;;;;;;;;;;1741505;28;20967;-75
2024/01/17 10:57:14;;;;;;;14.10;11.10;;;;;;;;;;1741623;28;20223;-76
2024/01/17 10:58:09;;;;;;;9.48;8.57;;;;;;;;;;1741206;28;20972;-76
2024/01/17 10:59:02;;;;;;;19.92;16.52;;;;;;;;;;1741499;28;20206;-76
2024/01/17 10:59:53;;;;;;;14.15;12.77;;;;;;;;;;1741305;28;20593;-76
2024/01/17 11:00:47;;;;;;;16.70;14.88;;;;;;;;;;1741546;28;20210;-75
2024/01/17 11:01:38;;;;;;;24.77;19.52;;;;;;;;;;1741613;28;20211;-76
2024/01/17 11:02:31;;;;;;;34.65;24.55;;;;;;;;;;1741486;28;20195;-76
2024/01/17 11:03:28;;;;;;;37.90;25.27;;;;;;;;;;1741546;28;20218;-76